Time;durP1;ratioP1;P1;durP2;ratioP2;P2;SDS_P1;SDS_P2;PMS_P1;PMS_P2;Temp;Humidity;BMP_temperature;BMP_pressure;BME280_temperature;BME280_humidity;BME280_pressure;Samples;Min_cycle;Max_cycle;Signal;HPM_P1;HPM_P2
2023/08/31 00:01:40;;;;;;;16.60;15.30;;;14.00;99.90;;;;;;5021139;28;20218;-41
2023/08/31 00:04:14;;;;;;;17.30;16.10;;;14.10;99.90;;;;;;5020753;28;20187;-40
2023/08/31 00:06:45;;;;;;;17.13;15.90;;;14.10;99.90;;;;;;5020921;28;20186;-41
2023/08/31 00:09:11;;;;;;;17.27;15.77;;;14.20;99.90;;;;;;5021497;28;20878;-41
2023/08/31 00:11:37;;;;;;;16.13;15.13;;;14.20;99.90;;;;;;5021891;28;20429;-41
2023/08/31 00:14:03;;;;;;;15.83;14.73;;;14.20;99.90;;;;;;5020689;28;20437;-40
2023/08/31 00:16:29;;;;;;;16.53;15.53;;;14.20;99.90;;;;;;5020926;28;20436;-43
2023/08/31 00:18:56;;;;;;;16.50;15.50;;;14.30;99.90;;;;;;5021288;28;20545;-41
2023/08/31 00:21:22;;;;;;;16.33;15.37;;;14.30;99.90;;;;;;5018803;28;20503;-39
2023/08/31 00:23:49;;;;;;;16.03;15.03;;;14.30;99.90;;;;;;5020307;28;21046;-40
2023/08/31 00:26:14;;;;;;;16.40;15.40;;;14.40;99.90;;;;;;5021614;28;20785;-40
2023/08/31 00:28:42;;;;;;;16.10;15.20;;;14.40;99.90;;;;;;5020297;28;20421;-40
2023/08/31 00:31:08;;;;;;;16.00;15.00;;;14.40;99.90;;;;;;5020710;28;21322;-41
2023/08/31 00:33:34;;;;;;;16.20;15.17;;;14.50;99.90;;;;;;5009847;28;20425;-42
2023/08/31 00:36:03;;;;;;;16.60;15.50;;;14.50;99.90;;;;;;5020848;28;21476;-40
2023/08/31 00:38:32;;;;;;;16.27;15.27;;;14.50;99.90;;;;;;5020502;28;21005;-40
2023/08/31 00:40:58;;;;;;;16.40;15.40;;;14.50;99.90;;;;;;5020770;28;20465;-42
2023/08/31 00:43:23;;;;;;;15.23;14.33;;;14.50;99.90;;;;;;5019855;28;20506;-40
2023/08/31 00:45:51;;;;;;;15.70;14.80;;;14.60;99.90;;;;;;5019879;28;20540;-42
2023/08/31 00:48:18;;;;;;;16.67;15.60;;;14.50;99.90;;;;;;5020511;28;20186;-40
2023/08/31 00:50:45;;;;;;;16.10;15.13;;;14.50;99.90;;;;;;5020592;28;20932;-40
2023/08/31 00:53:11;;;;;;;16.90;15.90;;;14.50;99.90;;;;;;5020807;28;20428;-40
2023/08/31 00:55:38;;;;;;;15.70;14.80;;;14.50;99.90;;;;;;5020753;28;20441;-40
2023/08/31 00:58:05;;;;;;;15.40;14.50;;;14.50;99.90;;;;;;5020130;28;20274;-40
2023/08/31 01:00:40;;;;;;;15.87;14.97;;;14.70;99.90;;;;;;5018528;28;20460;-40
2023/08/31 01:03:12;;;;;;;15.93;14.93;;;14.80;99.90;;;;;;5019199;28;20432;-40
2023/08/31 01:06:22;;;;;;;14.67;13.87;;;14.80;99.90;;;;;;5019240;28;20444;-40
2023/08/31 01:09:07;;;;;;;15.87;14.87;;;14.80;99.90;;;;;;4982330;28;20992;-40
2023/08/31 01:11:41;;;;;;;15.80;14.90;;;14.80;99.90;;;;;;4984155;28;21116;-39
2023/08/31 01:14:18;;;;;;;15.90;15.00;;;14.70;99.90;;;;;;4993773;28;20442;-40
2023/08/31 01:16:48;;;;;;;15.97;15.07;;;14.70;99.90;;;;;;4991852;28;20474;-40
2023/08/31 01:19:41;;;;;;;16.23;15.30;;;14.70;99.90;;;;;;4986940;28;20462;-43
2023/08/31 01:22:12;;;;;;;15.27;14.37;;;14.60;99.90;;;;;;4988063;28;21685;-39
2023/08/31 01:24:39;;;;;;;14.80;14.00;;;14.50;99.90;;;;;;4983122;28;21064;-40
2023/08/31 01:27:05;;;;;;;16.17;15.17;;;14.50;99.90;;;;;;4986870;28;20894;-41
2023/08/31 01:29:31;;;;;;;14.90;14.10;;;14.40;99.90;;;;;;4979654;28;20530;-41
2023/08/31 01:31:56;;;;;;;15.97;15.07;;;14.40;99.90;;;;;;4979674;28;20438;-40
2023/08/31 01:34:22;;;;;;;14.50;13.80;;;14.40;99.90;;;;;;4979577;28;20275;-41
2023/08/31 01:36:56;;;;;;;15.33;14.47;;;14.40;99.90;;;;;;4980708;28;20631;-41
2023/08/31 01:39:29;;;;;;;15.67;14.77;;;14.40;99.90;;;;;;5001105;28;20249;-40
2023/08/31 01:42:03;;;;;;;15.10;14.30;;;14.40;99.90;;;;;;5019460;28;20465;-41
2023/08/31 01:44:32;;;;;;;14.80;13.90;;;14.50;99.90;;;;;;5017377;28;20466;-41
2023/08/31 01:47:05;;;;;;;15.10;14.20;;;14.50;99.90;;;;;;5019914;28;20526;-42
2023/08/31 01:49:36;;;;;;;15.40;14.40;;;14.50;99.90;;;;;;5017346;28;20433;-40
2023/08/31 01:52:02;;;;;;;15.10;14.10;;;14.50;99.90;;;;;;5019092;28;20788;-42
2023/08/31 01:54:28;;;;;;;14.53;13.73;;;14.50;99.90;;;;;;5018924;28;20433;-41
2023/08/31 01:56:54;;;;;;;14.63;13.83;;;14.60;99.90;;;;;;5020173;28;20223;-41
2023/08/31 01:59:19;;;;;;;15.70;14.80;;;14.60;99.90;;;;;;5019398;28;20584;-41
2023/08/31 02:01:45;;;;;;;15.10;14.30;;;14.50;99.90;;;;;;5020616;28;20194;-40
2023/08/31 02:04:11;;;;;;;15.07;14.17;;;14.60;99.90;;;;;;5020319;28;20285;-40
2023/08/31 02:06:36;;;;;;;15.10;14.10;;;14.60;99.90;;;;;;5019932;28;20728;-40
2023/08/31 02:09:02;;;;;;;15.37;14.47;;;14.60;99.90;;;;;;5018900;28;20183;-40
2023/08/31 02:11:28;;;;;;;16.43;15.47;;;14.60;99.90;;;;;;5019663;28;20221;-45
2023/08/31 02:13:53;;;;;;;17.17;15.43;;;14.60;99.90;;;;;;5019520;28;20218;-40
2023/08/31 02:16:19;;;;;;;15.60;14.70;;;14.60;99.90;;;;;;5019046;28;20195;-39
2023/08/31 02:18:44;;;;;;;16.70;15.00;;;14.50;99.90;;;;;;5019885;28;20178;-40
2023/08/31 02:21:10;;;;;;;16.87;15.87;;;14.60;99.90;;;;;;5019904;28;20210;-41
2023/08/31 02:23:35;;;;;;;15.40;14.40;;;14.50;99.90;;;;;;5020391;28;20218;-42
2023/08/31 02:26:01;;;;;;;15.17;14.30;;;14.50;99.90;;;;;;5019918;28;20186;-40
2023/08/31 02:28:27;;;;;;;16.17;15.23;;;14.50;99.90;;;;;;5018921;28;20194;-41
2023/08/31 02:31:01;;;;;;;15.57;14.67;;;14.60;99.90;;;;;;5018306;28;20264;-44
2023/08/31 02:33:27;;;;;;;15.40;14.50;;;14.60;99.90;;;;;;5018941;28;20255;-40
2023/08/31 02:35:54;;;;;;;16.00;14.90;;;14.60;99.90;;;;;;5022644;28;20795;-40
2023/08/31 02:38:20;;;;;;;15.50;14.60;;;14.60;99.90;;;;;;5022951;28;21137;-41
2023/08/31 02:40:49;;;;;;;16.60;15.50;;;14.60;99.90;;;;;;5023026;28;20469;-40
2023/08/31 02:43:15;;;;;;;15.97;15.03;;;14.60;99.90;;;;;;5023342;28;20178;-40
2023/08/31 02:45:41;;;;;;;15.80;14.90;;;14.60;99.90;;;;;;5023377;28;20911;-41
2023/08/31 02:48:07;;;;;;;15.77;14.77;;;14.60;99.90;;;;;;5022545;28;20429;-40
2023/08/31 02:50:34;;;;;;;15.70;14.73;;;14.60;99.90;;;;;;5022192;28;20226;-40
2023/08/31 02:53:00;;;;;;;16.00;15.00;;;14.60;99.90;;;;;;5022667;28;20444;-41
2023/08/31 02:55:26;;;;;;;15.93;15.03;;;14.60;99.90;;;;;;5022023;28;20428;-41
2023/08/31 02:57:52;;;;;;;14.73;13.87;;;14.60;99.90;;;;;;5022599;28;20216;-40
2023/08/31 03:00:21;;;;;;;15.03;14.17;;;14.60;99.90;;;;;;5020614;28;20967;-40
2023/08/31 03:02:47;;;;;;;13.87;12.97;;;14.60;99.90;;;;;;5022200;28;20582;-44
2023/08/31 03:05:13;;;;;;;12.70;12.10;;;14.60;99.90;;;;;;5022395;28;20515;-40
2023/08/31 03:07:39;;;;;;;13.83;13.03;;;14.60;99.90;;;;;;5022927;28;20437;-41
2023/08/31 03:10:05;;;;;;;13.70;12.77;;;14.70;99.90;;;;;;5020627;28;20910;-40
2023/08/31 03:12:31;;;;;;;12.47;11.87;;;14.60;99.90;;;;;;5021870;28;20622;-40
2023/08/31 03:14:56;;;;;;;13.10;12.40;;;14.70;99.90;;;;;;5021291;28;20445;-41
2023/08/31 03:17:22;;;;;;;13.43;12.73;;;14.60;99.90;;;;;;5023398;28;20186;-41
2023/08/31 03:19:48;;;;;;;12.30;11.70;;;14.60;99.90;;;;;;5021269;28;20770;-41
2023/08/31 03:22:14;;;;;;;11.20;10.70;;;14.60;99.90;;;;;;5023374;28;20193;-40
2023/08/31 03:24:40;;;;;;;11.53;10.93;;;14.70;99.90;;;;;;5022667;28;20465;-39
2023/08/31 03:27:05;;;;;;;11.67;11.17;;;14.70;99.90;;;;;;5022701;28;20266;-41
2023/08/31 03:29:32;;;;;;;11.80;11.20;;;14.70;99.90;;;;;;5021333;28;20220;-40
2023/08/31 03:31:59;;;;;;;11.73;11.17;;;14.70;99.90;;;;;;5021825;28;20198;-39
2023/08/31 03:34:31;;;;;;;11.43;10.83;;;14.70;99.90;;;;;;5022700;28;21344;-40
2023/08/31 03:37:00;;;;;;;10.90;10.40;;;14.60;99.90;;;;;;5022491;28;20425;-40
2023/08/31 03:39:26;;;;;;;10.70;10.20;;;14.60;99.90;;;;;;5021480;28;20437;-40
2023/08/31 03:41:51;;;;;;;11.03;10.43;;;14.60;99.90;;;;;;5022737;28;20475;-40
2023/08/31 03:44:17;;;;;;;11.87;11.27;;;14.70;99.90;;;;;;5021137;28;20656;-40
2023/08/31 03:46:43;;;;;;;11.27;10.77;;;14.80;99.90;;;;;;5022074;28;20197;-40
2023/08/31 03:49:09;;;;;;;11.23;10.73;;;14.70;99.90;;;;;;5021221;28;20193;-39
2023/08/31 03:51:34;;;;;;;10.73;10.13;;;14.70;99.90;;;;;;5015878;28;20886;-40
2023/08/31 03:54:00;;;;;;;11.10;10.60;;;14.70;99.90;;;;;;5017345;28;20244;-40
2023/08/31 03:56:26;;;;;;;11.43;10.90;;;14.70;99.90;;;;;;5020679;28;20194;-41
2023/08/31 03:58:52;;;;;;;11.37;10.80;;;14.60;99.90;;;;;;5021630;28;20528;-40
2023/08/31 04:01:18;;;;;;;11.10;10.60;;;14.60;99.90;;;;;;5019939;28;20483;-41
2023/08/31 04:03:43;;;;;;;11.90;11.30;;;14.60;99.90;;;;;;5022009;28;20182;-41
2023/08/31 04:06:09;;;;;;;10.73;10.23;;;14.50;99.90;;;;;;5020734;28;20187;-41
2023/08/31 04:08:35;;;;;;;10.73;10.23;;;14.50;99.90;;;;;;5020420;28;20703;-40
2023/08/31 04:11:00;;;;;;;9.47;9.03;;;14.50;99.90;;;;;;5020866;28;20187;-40
2023/08/31 04:13:26;;;;;;;11.87;11.27;;;14.40;99.90;;;;;;5021950;28;21115;-40
2023/08/31 04:15:53;;;;;;;12.23;11.60;;;14.40;99.90;;;;;;5020459;28;20182;-41
2023/08/31 04:18:19;;;;;;;13.60;12.80;;;14.40;99.90;;;;;;5019571;28;20285;-39
2023/08/31 04:20:53;;;;;;;11.90;11.30;;;14.40;99.90;;;;;;5020660;28;21004;-41
2023/08/31 04:23:19;;;;;;;11.50;11.00;;;14.40;99.90;;;;;;5022051;28;20469;-40
2023/08/31 04:25:46;;;;;;;11.37;10.87;;;14.30;99.90;;;;;;5021960;28;21193;-42
2023/08/31 04:28:11;;;;;;;11.67;11.07;;;14.20;99.90;;;;;;5021097;28;20431;-42
2023/08/31 04:30:38;;;;;;;11.33;10.73;;;14.30;99.90;;;;;;5021632;28;20953;-40
2023/08/31 04:33:04;;;;;;;10.50;9.90;;;14.20;99.90;;;;;;5020396;28;20243;-40
2023/08/31 04:35:31;;;;;;;11.27;10.77;;;14.20;99.90;;;;;;5018764;28;20444;-40
2023/08/31 04:37:57;;;;;;;10.53;10.03;;;14.20;99.90;;;;;;5020375;28;20548;-41
2023/08/31 04:40:22;;;;;;;12.40;11.70;;;14.20;99.90;;;;;;5022300;28;20457;-40
2023/08/31 04:42:48;;;;;;;11.80;11.20;;;14.20;99.90;;;;;;5021557;28;20413;-41
2023/08/31 04:45:14;;;;;;;12.90;12.00;;;14.30;99.90;;;;;;5021348;28;20205;-40
2023/08/31 04:47:39;;;;;;;12.90;12.00;;;14.20;99.90;;;;;;5021192;28;20179;-40
2023/08/31 04:50:06;;;;;;;12.37;11.43;;;14.20;99.90;;;;;;5021882;28;20198;-41
2023/08/31 04:52:32;;;;;;;11.10;10.50;;;14.20;99.90;;;;;;5021190;28;20273;-40
2023/08/31 04:54:58;;;;;;;12.37;11.50;;;14.30;99.90;;;;;;5021433;28;21095;-40
2023/08/31 04:57:24;;;;;;;11.30;10.70;;;14.30;99.90;;;;;;5020711;28;20433;-39
2023/08/31 04:59:49;;;;;;;11.00;10.50;;;14.30;99.90;;;;;;5021202;28;20532;-42
2023/08/31 05:02:15;;;;;;;12.17;11.53;;;14.40;99.90;;;;;;5020683;28;20506;-40
2023/08/31 05:04:41;;;;;;;12.30;11.60;;;14.50;99.90;;;;;;5020791;28;20187;-39
2023/08/31 05:07:07;;;;;;;11.80;11.20;;;14.50;99.90;;;;;;5021151;28;20179;-43
2023/08/31 05:09:34;;;;;;;11.87;11.27;;;14.60;99.90;;;;;;5020726;28;20307;-40
2023/08/31 05:12:03;;;;;;;11.63;10.67;;;14.60;99.90;;;;;;5020373;28;20421;-41
2023/08/31 05:14:29;;;;;;;11.20;10.60;;;14.60;99.90;;;;;;5020791;28;20967;-41
2023/08/31 05:16:55;;;;;;;11.10;10.57;;;14.60;99.90;;;;;;5019204;28;20469;-41
2023/08/31 05:19:21;;;;;;;11.37;10.67;;;14.70;99.90;;;;;;5019856;28;20416;-42
2023/08/31 05:21:47;;;;;;;11.60;11.00;;;14.60;99.90;;;;;;5020136;28;20461;-41
2023/08/31 05:24:13;;;;;;;12.83;12.10;;;14.70;99.90;;;;;;5021202;28;20475;-40
2023/08/31 05:26:39;;;;;;;11.70;11.10;;;14.70;99.90;;;;;;5020721;28;20405;-40
2023/08/31 05:29:05;;;;;;;12.73;11.93;;;14.80;99.90;;;;;;5021006;28;20208;-39
2023/08/31 05:31:31;;;;;;;14.97;14.07;;;14.80;99.90;;;;;;5019152;28;21507;-41
2023/08/31 05:33:57;;;;;;;11.73;11.13;;;14.90;99.90;;;;;;5019305;28;20187;-41
2023/08/31 05:36:23;;;;;;;12.33;11.70;;;15.00;99.90;;;;;;5019607;28;20421;-40
2023/08/31 05:38:48;;;;;;;13.40;12.70;;;15.00;99.90;;;;;;5020153;28;20182;-43
2023/08/31 05:41:14;;;;;;;12.53;11.73;;;15.00;99.90;;;;;;5020521;28;20351;-41
2023/08/31 05:43:42;;;;;;;12.30;11.57;;;15.10;99.90;;;;;;5019915;28;20588;-41
2023/08/31 05:46:08;;;;;;;12.67;11.97;;;15.20;99.90;;;;;;5020089;28;20181;-41
2023/08/31 05:48:36;;;;;;;12.17;11.57;;;15.20;99.90;;;;;;5020531;28;20426;-41
2023/08/31 05:51:03;;;;;;;12.60;11.90;;;15.20;99.90;;;;;;5016850;28;20436;-43
2023/08/31 05:53:32;;;;;;;12.30;11.60;;;15.20;99.90;;;;;;5019553;28;20473;-41
2023/08/31 05:56:04;;;;;;;13.67;12.60;;;15.30;99.90;;;;;;5020125;28;20413;-42
2023/08/31 05:58:34;;;;;;;13.30;12.60;;;15.40;99.90;;;;;;5019743;28;20550;-41
2023/08/31 06:01:00;;;;;;;13.70;12.87;;;15.50;99.90;;;;;;5019705;28;20457;-40
2023/08/31 06:03:26;;;;;;;14.10;13.20;;;15.50;99.90;;;;;;5017551;28;20432;-41
2023/08/31 06:05:52;;;;;;;12.37;11.77;;;15.60;99.90;;;;;;5019345;28;20957;-41
2023/08/31 06:08:17;;;;;;;12.47;11.77;;;15.60;99.90;;;;;;5007027;28;20888;-40
2023/08/31 06:10:43;;;;;;;12.60;11.90;;;15.70;99.90;;;;;;5024874;28;20182;-40
2023/08/31 06:13:09;;;;;;;12.97;12.17;;;15.80;99.90;;;;;;5024833;28;20236;-39
2023/08/31 06:15:34;;;;;;;13.40;12.70;;;15.90;99.90;;;;;;5023482;28;20210;-41
2023/08/31 06:18:00;;;;;;;12.97;12.10;;;16.00;99.90;;;;;;5023823;28;20288;-43
2023/08/31 06:20:25;;;;;;;12.47;11.87;;;16.00;99.90;;;;;;5022773;28;20206;-41
2023/08/31 06:22:51;;;;;;;13.13;12.33;;;16.00;99.90;;;;;;5023735;28;20175;-42
2023/08/31 06:25:18;;;;;;;12.50;11.80;;;16.20;99.90;;;;;;5024094;28;20254;-40
2023/08/31 06:27:44;;;;;;;12.70;12.00;;;16.10;99.90;;;;;;5023635;28;20167;-40
2023/08/31 06:30:16;;;;;;;13.00;12.30;;;16.00;99.90;;;;;;5024010;28;20427;-41
2023/08/31 06:32:46;;;;;;;12.80;12.10;;;16.10;99.90;;;;;;5022288;28;20487;-42
2023/08/31 06:35:13;;;;;;;12.80;12.20;;;16.20;99.90;;;;;;5023372;28;21004;-40
2023/08/31 06:37:39;;;;;;;12.30;11.60;;;16.20;99.90;;;;;;5017580;28;20469;-39
2023/08/31 06:40:08;;;;;;;12.30;11.70;;;16.30;99.90;;;;;;5023007;28;20449;-40
2023/08/31 06:42:34;;;;;;;14.13;13.23;;;16.30;99.90;;;;;;5022425;28;20440;-42
2023/08/31 06:44:59;;;;;;;13.00;12.30;;;16.30;99.90;;;;;;5022593;28;20865;-43
2023/08/31 06:47:25;;;;;;;12.47;11.77;;;16.50;99.90;;;;;;5020904;28;20504;-42
2023/08/31 06:49:51;;;;;;;12.67;11.97;;;16.50;99.90;;;;;;5022423;28;20187;-40
2023/08/31 06:52:17;;;;;;;13.00;12.30;;;16.40;99.90;;;;;;5022993;28;20170;-43
2023/08/31 06:54:43;;;;;;;12.47;11.77;;;16.50;99.90;;;;;;5022701;28;20221;-44
2023/08/31 06:57:08;;;;;;;11.20;10.60;;;16.30;99.90;;;;;;5022789;28;20437;-41
2023/08/31 06:59:34;;;;;;;12.73;11.97;;;16.10;99.90;;;;;;5023049;28;20544;-39
2023/08/31 07:01:59;;;;;;;12.13;11.53;;;16.20;99.90;;;;;;5022141;28;20217;-40
2023/08/31 07:04:27;;;;;;;12.40;11.70;;;16.20;99.90;;;;;;5020789;28;20653;-40
2023/08/31 07:06:52;;;;;;;13.20;12.27;;;16.30;99.90;;;;;;5022263;28;20174;-40
2023/08/31 07:09:18;;;;;;;12.20;11.60;;;16.40;99.90;;;;;;5022733;28;20437;-41
2023/08/31 07:11:44;;;;;;;12.63;11.83;;;16.40;99.90;;;;;;5021588;28;20245;-40
2023/08/31 07:14:09;;;;;;;12.60;11.90;;;16.50;99.90;;;;;;5021233;28;20189;-40
2023/08/31 07:16:35;;;;;;;11.70;11.00;;;16.50;99.90;;;;;;5023371;28;20203;-40
2023/08/31 07:19:01;;;;;;;12.40;11.70;;;16.60;99.90;;;;;;5022786;28;20189;-40
2023/08/31 07:21:26;;;;;;;11.83;11.03;;;16.70;99.90;;;;;;5022438;28;21090;-41
2023/08/31 07:23:54;;;;;;;11.63;10.93;;;16.80;99.90;;;;;;5021791;28;20456;-40
2023/08/31 07:26:19;;;;;;;12.90;12.10;;;17.00;99.90;;;;;;5021702;28;20179;-40
2023/08/31 07:28:45;;;;;;;12.20;11.50;;;17.00;99.90;;;;;;5022805;28;20495;-40
2023/08/31 07:31:11;;;;;;;11.97;11.27;;;17.10;99.90;;;;;;5023108;28;20236;-41
2023/08/31 07:33:37;;;;;;;11.77;11.17;;;17.10;99.90;;;;;;5020411;28;20197;-41
2023/08/31 07:36:04;;;;;;;13.20;12.50;;;17.20;99.90;;;;;;5019816;28;20425;-40
2023/08/31 07:38:30;;;;;;;12.90;12.23;;;17.10;99.90;;;;;;5022857;28;20191;-40
2023/08/31 07:40:56;;;;;;;12.33;11.63;;;17.10;99.90;;;;;;5022557;28;20571;-40
2023/08/31 07:43:21;;;;;;;12.33;11.70;;;17.10;99.90;;;;;;5022773;28;20434;-39
2023/08/31 07:45:47;;;;;;;12.83;12.13;;;17.10;99.90;;;;;;5022281;28;20179;-40
2023/08/31 07:48:13;;;;;;;12.40;11.70;;;16.90;99.90;;;;;;5021737;28;20265;-39
2023/08/31 07:50:41;;;;;;;13.20;12.50;;;16.90;99.90;;;;;;5014266;28;20285;-40
2023/08/31 07:53:07;;;;;;;12.47;11.87;;;17.00;99.90;;;;;;5018761;28;20175;-40
2023/08/31 07:55:33;;;;;;;12.13;11.43;;;17.10;99.90;;;;;;5020974;28;20926;-41
2023/08/31 07:57:58;;;;;;;12.73;12.00;;;17.30;99.90;;;;;;5019721;28;20273;-41
2023/08/31 08:00:24;;;;;;;12.37;11.77;;;17.30;99.90;;;;;;5021406;28;20221;-42
2023/08/31 08:02:50;;;;;;;11.90;11.30;;;17.40;99.90;;;;;;5021833;28;20554;-40
2023/08/31 08:05:15;;;;;;;12.20;11.50;;;17.40;99.90;;;;;;5020695;28;20178;-43
2023/08/31 08:07:42;;;;;;;12.47;11.87;;;17.40;99.90;;;;;;5021523;28;20221;-40
2023/08/31 08:10:08;;;;;;;12.23;11.57;;;17.40;99.90;;;;;;5021549;28;20569;-40
2023/08/31 08:12:44;;;;;;;13.40;12.17;;;17.60;99.90;;;;;;5021630;28;20954;-41
2023/08/31 08:15:10;;;;;;;11.93;11.33;;;17.70;99.90;;;;;;5022038;28;20550;-41
2023/08/31 08:17:35;;;;;;;12.37;11.50;;;17.80;99.90;;;;;;5020040;28;20447;-41
2023/08/31 08:20:03;;;;;;;11.33;10.73;;;17.70;99.90;;;;;;5021154;28;20185;-41
2023/08/31 08:22:28;;;;;;;11.97;11.37;;;17.70;99.90;;;;;;5019257;28;20269;-41
2023/08/31 08:24:54;;;;;;;12.63;12.03;;;17.70;99.90;;;;;;5020120;28;21465;-41
2023/08/31 08:27:20;;;;;;;11.97;11.37;;;17.90;99.90;;;;;;5021590;28;20202;-42
2023/08/31 08:29:46;;;;;;;12.23;11.63;;;18.10;98.80;;;;;;5021507;28;20186;-41
2023/08/31 08:32:12;;;;;;;11.90;11.20;;;18.40;97.40;;;;;;5020260;28;20428;-43
2023/08/31 08:34:38;;;;;;;12.00;11.40;;;18.60;97.20;;;;;;5020735;28;20425;-41
2023/08/31 08:37:04;;;;;;;12.03;11.50;;;18.90;95.70;;;;;;5019901;28;21069;-43
2023/08/31 08:39:30;;;;;;;11.77;11.10;;;19.00;94.90;;;;;;5019995;28;20301;-41
2023/08/31 08:41:58;;;;;;;11.30;10.70;;;19.00;93.80;;;;;;5017750;28;20472;-40
2023/08/31 08:44:32;;;;;;;11.43;10.90;;;19.00;93.60;;;;;;5018167;28;20411;-41
2023/08/31 08:46:59;;;;;;;11.37;10.77;;;19.10;93.00;;;;;;5021104;28;20771;-40
2023/08/31 08:49:26;;;;;;;11.40;10.70;;;19.30;91.50;;;;;;5020664;28;21592;-44
2023/08/31 08:51:53;;;;;;;11.40;10.90;;;19.60;91.30;;;;;;5020559;28;20421;-42
2023/08/31 08:54:18;;;;;;;11.63;11.03;;;19.80;90.20;;;;;;5019765;28;20472;-41
2023/08/31 08:56:44;;;;;;;10.87;10.27;;;20.40;90.60;;;;;;5015965;28;20826;-40
2023/08/31 08:59:13;;;;;;;11.73;11.13;;;20.30;85.90;;;;;;5020834;28;20432;-40
2023/08/31 09:01:39;;;;;;;12.13;11.53;;;20.40;85.80;;;;;;5020932;28;20202;-40
2023/08/31 09:04:05;;;;;;;11.40;10.80;;;20.50;84.20;;;;;;5020961;28;20409;-40
2023/08/31 09:06:30;;;;;;;11.20;10.60;;;20.70;80.50;;;;;;5020487;28;20839;-44
2023/08/31 09:08:56;;;;;;;11.50;10.80;;;20.90;83.00;;;;;;5021111;28;20190;-40
2023/08/31 09:11:23;;;;;;;11.43;10.93;;;21.20;77.80;;;;;;5021012;28;20229;-41
2023/08/31 09:13:49;;;;;;;12.27;11.57;;;21.40;77.60;;;;;;5017400;28;20440;-44
2023/08/31 09:16:29;;;;;;;11.77;11.07;;;22.00;73.20;;;;;;5021132;28;20503;-42
2023/08/31 09:18:58;;;;;;;11.33;10.83;;;22.50;70.10;;;;;;5020648;28;20429;-42
2023/08/31 09:21:37;;;;;;;12.37;11.77;;;22.70;66.80;;;;;;5020868;28;20457;-42
2023/08/31 09:24:07;;;;;;;11.63;11.13;;;22.80;63.20;;;;;;5020562;28;20460;-41
2023/08/31 09:26:43;;;;;;;11.90;11.40;;;22.80;62.90;;;;;;5020684;28;20425;-40
2023/08/31 09:29:09;;;;;;;12.23;11.63;;;22.50;60.90;;;;;;5020177;28;20404;-41
2023/08/31 09:31:35;;;;;;;10.80;10.20;;;21.90;61.60;;;;;;5020463;28;20429;-42
2023/08/31 09:34:01;;;;;;;11.27;10.77;;;21.30;62.90;;;;;;5020401;28;20224;-40
2023/08/31 09:36:28;;;;;;;11.73;11.23;;;21.30;68.30;;;;;;5020511;28;20417;-41
2023/08/31 09:38:58;;;;;;;10.80;10.30;;;21.90;60.30;;;;;;5020254;28;20436;-41
2023/08/31 09:41:24;;;;;;;12.00;11.50;;;22.10;57.70;;;;;;5020559;28;21069;-40
2023/08/31 09:43:49;;;;;;;11.80;11.30;;;21.90;57.10;;;;;;5019272;28;20532;-40
2023/08/31 09:46:15;;;;;;;13.20;12.40;;;21.20;57.10;;;;;;5020542;28;20208;-42
2023/08/31 09:48:42;;;;;;;12.20;11.60;;;20.50;59.20;;;;;;5020561;28;20197;-40
2023/08/31 09:51:10;;;;;;;11.43;10.93;;;20.50;62.30;;;;;;5020625;28;20425;-41
2023/08/31 09:53:37;;;;;;;11.57;10.97;;;20.90;63.80;;;;;;5020015;28;20429;-40
2023/08/31 09:56:06;;;;;;;12.13;11.53;;;21.00;63.50;;;;;;5020492;28;20498;-41
2023/08/31 09:58:33;;;;;;;11.87;11.37;;;21.00;62.80;;;;;;5020915;28;20460;-40
2023/08/31 10:00:59;;;;;;;12.00;11.40;;;21.00;61.90;;;;;;5019629;28;20473;-40
2023/08/31 10:03:27;;;;;;;11.90;11.20;;;20.50;59.30;;;;;;5014544;28;20420;-40
2023/08/31 10:05:54;;;;;;;11.87;11.20;;;20.50;63.10;;;;;;5020259;28;20413;-41
2023/08/31 10:08:20;;;;;;;12.03;11.43;;;20.40;64.10;;;;;;5020467;28;20417;-41
2023/08/31 10:10:46;;;;;;;11.30;10.80;;;20.30;63.30;;;;;;5019994;28;20644;-40
2023/08/31 10:13:13;;;;;;;11.37;10.87;;;20.30;64.80;;;;;;5019934;28;20181;-41
2023/08/31 10:15:41;;;;;;;12.30;11.80;;;20.20;63.10;;;;;;5018185;28;20444;-40
2023/08/31 10:18:07;;;;;;;12.23;11.73;;;20.20;65.10;;;;;;5019789;28;20428;-40
2023/08/31 10:20:34;;;;;;;11.67;11.07;;;20.10;65.30;;;;;;5017743;28;20476;-41
2023/08/31 10:23:07;;;;;;;11.60;11.10;;;20.00;66.50;;;;;;5019563;28;20446;-41
2023/08/31 10:25:53;;;;;;;11.40;10.90;;;20.20;68.60;;;;;;5019894;28;20466;-41
2023/08/31 10:28:23;;;;;;;11.33;10.73;;;20.70;65.60;;;;;;5019512;28;20919;-43
2023/08/31 10:31:03;;;;;;;11.20;10.70;;;21.20;64.90;;;;;;5020623;28;20419;-40
2023/08/31 10:33:31;;;;;;;11.50;10.90;;;21.50;63.00;;;;;;5019982;28;20425;-41
2023/08/31 10:35:57;;;;;;;12.20;11.53;;;21.40;57.70;;;;;;5016500;28;20933;-41
2023/08/31 10:38:33;;;;;;;11.23;10.63;;;20.90;56.60;;;;;;5020210;28;20417;-42
2023/08/31 10:41:23;;;;;;;11.53;10.97;;;20.60;59.70;;;;;;5019829;28;20202;-41
2023/08/31 10:43:57;;;;;;;11.67;11.17;;;20.50;58.20;;;;;;5019435;28;20432;-43
2023/08/31 10:46:33;;;;;;;12.20;11.70;;;20.40;58.80;;;;;;5019121;28;20429;-41
2023/08/31 10:49:09;;;;;;;11.17;10.67;;;20.50;59.70;;;;;;5020215;28;20427;-41
2023/08/31 10:51:37;;;;;;;11.00;10.40;;;20.60;57.90;;;;;;5019727;28;21583;-40
2023/08/31 10:54:24;;;;;;;10.97;10.40;;;20.80;58.50;;;;;;5019273;28;20448;-42
2023/08/31 10:56:57;;;;;;;11.33;10.83;;;21.20;56.30;;;;;;5022199;28;20555;-40
2023/08/31 10:59:24;;;;;;;10.90;10.40;;;22.10;54.70;;;;;;5023288;28;21059;-40
2023/08/31 11:01:57;;;;;;;10.93;10.53;;;22.90;50.10;;;;;;5023296;28;20460;-42
2023/08/31 11:04:27;;;;;;;10.60;10.20;;;23.70;49.00;;;;;;5018660;28;20436;-40
2023/08/31 11:07:18;;;;;;;9.80;9.40;;;24.30;45.10;;;;;;5023299;28;20436;-40
2023/08/31 11:09:45;;;;;;;11.37;10.87;;;23.10;44.20;;;;;;5023675;28;20439;-39
2023/08/31 11:12:12;;;;;;;10.53;10.03;;;22.40;47.00;;;;;;5021960;28;20427;-43
2023/08/31 11:14:38;;;;;;;11.63;10.87;;;22.40;47.00;;;;;;5021699;28;20429;-40
2023/08/31 11:17:05;;;;;;;11.33;10.83;;;21.90;47.60;;;;;;5023160;28;20444;-41
2023/08/31 11:19:32;;;;;;;10.83;10.30;;;21.50;47.10;;;;;;5021832;28;20201;-41
2023/08/31 11:22:00;;;;;;;11.40;10.90;;;21.00;48.20;;;;;;5022822;28;20784;-41
2023/08/31 11:24:25;;;;;;;10.40;10.00;;;20.60;50.00;;;;;;5022037;28;20477;-43
2023/08/31 11:26:52;;;;;;;11.40;10.90;;;20.10;55.30;;;;;;5021672;28;20433;-40
2023/08/31 11:29:18;;;;;;;11.00;10.23;;;19.70;65.00;;;;;;5020150;28;20221;-40
2023/08/31 11:31:43;;;;;;;11.43;10.73;;;19.40;70.70;;;;;;5022512;28;20508;-40
2023/08/31 11:34:16;;;;;;;11.23;10.70;;;19.10;74.10;;;;;;5022763;28;20467;-41
2023/08/31 11:36:43;;;;;;;9.97;9.57;;;19.00;77.90;;;;;;5018792;28;20218;-40
2023/08/31 11:39:10;;;;;;;11.43;10.90;;;18.90;79.60;;;;;;5022281;28;20443;-40
2023/08/31 11:41:41;;;;;;;11.03;10.60;;;18.60;83.30;;;;;;5021052;28;20469;-39
2023/08/31 11:44:09;;;;;;;11.23;10.77;;;18.40;88.80;;;;;;5018437;28;20428;-40
2023/08/31 11:46:35;;;;;;;12.53;11.97;;;18.30;95.00;;;;;;5021028;28;20425;-40
2023/08/31 11:49:04;;;;;;;12.87;12.37;;;17.90;99.90;;;;;;5021442;28;20528;-39
2023/08/31 11:51:32;;;;;;;14.03;13.33;;;17.50;99.90;;;;;;5020828;28;21050;-40
2023/08/31 11:53:59;;;;;;;15.00;14.30;;;17.10;99.90;;;;;;5020126;28;20594;-41
2023/08/31 11:56:25;;;;;;;15.03;14.33;;;16.50;99.90;;;;;;5021885;28;20425;-41
2023/08/31 11:58:51;;;;;;;15.90;15.10;;;15.80;99.90;;;;;;5021583;28;20449;-41
2023/08/31 12:01:21;;;;;;;15.67;14.97;;;15.60;99.90;;;;;;5020315;28;20692;-44
2023/08/31 12:03:47;;;;;;;15.80;15.00;;;15.60;99.90;;;;;;5017241;28;20525;-42
2023/08/31 12:06:20;;;;;;;15.97;15.17;;;15.80;99.90;;;;;;5017478;28;20429;-41
2023/08/31 12:08:45;;;;;;;15.47;14.77;;;16.10;99.90;;;;;;5019885;28;20472;-42
2023/08/31 12:11:11;;;;;;;15.20;14.50;;;16.50;99.90;;;;;;5019790;28;20509;-41
2023/08/31 12:13:37;;;;;;;15.93;15.07;;;16.80;99.90;;;;;;5019591;28;20186;-41
2023/08/31 12:16:04;;;;;;;15.13;14.43;;;17.10;99.90;;;;;;5020392;28;21207;-42
2023/08/31 12:18:33;;;;;;;14.50;13.90;;;17.40;99.90;;;;;;5019126;28;20205;-43
2023/08/31 12:20:59;;;;;;;12.50;12.00;;;17.80;99.90;;;;;;5019903;28;20468;-42
2023/08/31 12:23:25;;;;;;;11.90;11.40;;;18.60;99.90;;;;;;5020599;28;20459;-41
2023/08/31 12:25:53;;;;;;;11.30;10.70;;;19.80;99.90;;;;;;5017032;28;20179;-42
2023/08/31 12:28:20;;;;;;;10.53;10.03;;;21.00;99.90;;;;;;5020788;28;20587;-45
2023/08/31 12:30:53;;;;;;;11.67;11.10;;;22.30;96.90;;;;;;5020108;28;20425;-42